Charlestown, MA

6:13 PM EDT on March 27, 2015 (GMT -0400)
Logan International | | Change Station
CLOSE
Current Station
Airport
Location: Boston,
Elevation: 20 ft
Nearby Weather Stations
Active Advisory: Special Statement

Elev 20 ft 42.36 °N, 71.01 °W | Updated 19 minutes ago

Overcast
Overcast
39 °F
Feels Like 36 °F
N
5
Wind Variable Wind from SE

Today
High -- | Low -- °F
--% Chance of Precip.
Yesterday
High -- | Low -- °F
Precip. -- in
6:35 AM 7:04 PM
First Quarter, 56% visible
Pressure 29.71 in
Visibility 10.0 miles
Clouds Scattered Clouds 1900 ft
Mostly Cloudy 5500 ft
Mostly Cloudy 13000 ft
Overcast 26000 ft
Windchill 36 °F
Dew Point 35 °F
Humidity 86%
Rainfall 0.21 in
Snow Depth Not available.
UV 0 out of 12
Pollen 2.40 out of 12
Air Quality Not available.
Flu Activity Not available.
METAR KBOS 272154Z 14004KT 10SM SCT019 BKN055 BKN130 OVC260 04/02 A2971 RMK AO2 SLP060 T00390017

More Conditions Fewer Conditions

Pressure 29.71 in
Visibility 10.0 miles
Clouds Scattered Clouds 1900 ft
Mostly Cloudy 5500 ft
Mostly Cloudy 13000 ft
Overcast 26000 ft
Windchill 36 °F
Dew Point 35 °F
Humidity 86%
Rainfall 0.21 in
Snow Depth Not available.
UV 0 out of 12
Pollen 2.40 out of 12
Air Quality Not available.
Flu Activity Not available.
METAR KBOS 272154Z 14004KT 10SM SCT019 BKN055 BKN130 OVC260 04/02 A2971 RMK AO2 SLP060 T00390017

More Conditions Fewer Conditions

10-Day Weather Forecast

Almanac

Astronomy

Mar. 27, 2015 Rise Set
Actual Time
Civil Twilight
Nautical Twilight
Astronomical Twilight
Moon
Length of Visible Light
Length of Day
Tomorrow will be .
, % of the Moon is Illuminated

Today's Extremes

State Highs State Lows

Community

WunderPhotos

Upload Photos

1,808,844 photos uploaded!

WunderBlogs® & News

Nearby

Air Quality

  Air Quality AQ Index Pollutant
Not available.

Snow Depth

Station Depth Elevation

Earthquake Activity

City Distance Mag. Time & Date
Minimum magnitude displayed is 2.5.

Coastal Water Temperatures

Place Temperature

Stations

Nearby Weather Stations

Station Location Temp. Windchill Dew Point Humidity Wind Precip. Elev Updated Type
                   
Special Statement
Statement as of 4:45 PM EDT on March 27, 2015

... Accumulating snowfall expected late tonight into Saturday...

A low pressure passing well southeast of southern New England will
produce some snowfall within our region. The expected timing will
be late tonight into Saturday.

Travelers should be prepared for lower visibility at times...
along with the possibility of snow-covered roads.

Total snow accumulations of 1 to 3 inches are expected... with
locally higher amounts possible. Please see our winter weather
Page for more details at... weather.Gov/Boston/winter.


Belk